CA-0486 weather

CLOSED Leaside Aerodrome
Toronto, Ontario, Canada

Public forecast

Using degrees Celsius for public forecast. Weather courtesy of forecast.io.

METAR (pilot weather report)

Closest report is Billy Bishop Toronto City Centre Airport, 5.4 nm (9.9 km) SSW. Retrieved 2019/05/25 20:00 UTC (22 minutes ago):

CYTZ 252000Z AUTO 07012KT 7SM FEW120 14/13 A2983 RMK LTNG DIST ALQDS SLP104

TAF (pilot weather forecast)

Closest forecast is Billy Bishop Toronto City Centre Airport, 5.4 nm (9.9 km) SSW. Retrieved 2019/05/25 20:48 UTC (0 seconds ago):

TAF CYTZ 251939Z 2520/2620 08015KT P6SM -SHRA BKN025 TEMPO 2520/2521 3SM -SHRA BR VCTS BKN008 FM252100 09015KT P6SM -SHRA OVC025 TEMPO 2521/2523 2SM SHRA BR OVC005 PROB30 2521/2523 VRB15G35KT 1SM +TSRA BR BKN007 OVC020CB FM252300 23008KT P6SM SCT010 TEMPO 2523/2602 BKN010 FM260200 24010KT P6SM SCT010 BKN240 TEMPO 2602/2612 SCT008 BKN010 FM261200 27006KT P6SM BKN040 BKN240 BECMG 2614/2616 20008KT BECMG 2616/2618 36008KT RMK FCST BASED ON AUTO OBS. NXT FCST BY 260200Z